Share

Maljamar, NM (88264)

4:28 AM MDT on April 23, 2014 (GMT -0600)
Derrick Ranch (KNMLOVIN5) Elev 4072 ft | 32.93 °N, 103.52 °W | Change Station
Active Advisory: Fire Weather Warning

Current weather conditions updated 35 seconds ago

Clear
Clear
62.8 °F
Feels Like 62.8 °F
N
14.0
Wind Variable Wind from SSE
Gusts 27.0 mph
Sunrise 6:15 AM
Sunset 7:30 PM
Moon Last Quarter

Today is forecast to be Warmer than yesterday.

Pressure 29.89 in
Visibility 10.0 miles
Clouds Clear
Dew Point 46 °F
Humidity 55%
Rainfall 0.00 in
Snow Depth Not available.
UV 0 out of 16
Pollen 8.60 out of 12
Air Quality Not available.
Flu Activity Local Activity
METAR KHOB 230955Z AUTO 16011KT 10SM CLR 18/07 A2989 RMK AO2

More Conditions Fewer Conditions

Pressure 29.89 in
Visibility 10.0 miles
Clouds Clear
Dew Point 46 °F
Humidity 55%
Rainfall 0.00 in
Snow Depth Not available.
UV 0 out of 16
Pollen 8.60 out of 12
Air Quality Not available.
Flu Activity Local Activity
METAR KHOB 230955Z AUTO 16011KT 10SM CLR 18/07 A2989 RMK AO2

More Conditions Fewer Conditions

10-Day Weather Forecast

Almanac

Astronomy

Apr. 23, 2014 Rise Set
Actual Time 6:15 AM MDT 7:30 PM MDT
Civil Twilight 5:50 AM MDT 7:56 PM MDT
Nautical Twilight 5:19 AM MDT 8:27 PM MDT
Astronomical Twilight 4:47 AM MDT 8:59 PM MDT
Moon 2:29 AM MDT 2:00 PM MDT
Length of Visible Light 14h 06m
Length of Day
13h 14m
Tomorrow will be 1m 50s longer.
Last Quarter, 37% of the Moon is Illuminated
Today
Last Quarter
Apr 29
New
May 6
First Quarter
May 14
Full
May 21
Last Quarter

Today's Extremes

State Highs State Lows

Community

  • April Sunset
    April Sunset
  • Waiting..
    Waiting..
  • Sunset...
    Sunset...
  • Happy outdoor day
    Happy outdoor day
  • mystic afternoon....
    mystic afternoon....

WunderPhotos

Upload Photos

1,704,236 photos uploaded!

WunderBlogs® & News

By Dr. Jeff Masters
Director of Meteorology, Weather Underground
By Kari Strenfel
Meteorologist, Weather Underground
By Christopher C. Burt
Weather Historian, Weather Underground
April 23, 2014
April 22, 2014
April 22, 2014

Nearby

Snow Depth

Station Depth Elevation
Wesner Springs 0 in 11120 ft
Santa Fe 29 in 11445 ft
Lookout Mountain 0 in 8500 ft
McKnight Cabin 0 in 9240 ft
Gallegos Peak 0 in 9800 ft

Coastal Water Temperatures

Place Temperature
No Stations Reporting

Earthquake Activity

City Distance Mag. Time & Date
No recent earthquake activity has been reported nearby.
Minimum magnitude displayed is 2.5.

Nearby Weather Stations

Station Location Temp. Dew Point Humidity Wind Precip. Elev Updated Type
Derrick Ranch, Lovington, NM 62.8 °F 46 °F 55% SSE  at  14.0 mph 0.00 in / hr 4072 ft 4:28 AM MDT Normal

Show More Stations Show Fewer Stations

What do you think?

We're not finished. Please let us know what you like, what you don't like, and what you are still missing.